createdAt,value
2022-11-15T00:01:18.847Z,100680.00
2022-11-15T00:06:21.851Z,100676.40
2022-11-15T00:11:24.907Z,100673.00
2022-11-15T00:16:27.888Z,100671.80
2022-11-15T00:21:30.951Z,100658.20
2022-11-15T00:26:33.879Z,100649.60
2022-11-15T00:31:36.793Z,100646.80
2022-11-15T00:36:39.672Z,100634.60
2022-11-15T00:41:42.722Z,100631.60
2022-11-15T00:46:45.660Z,100623.00
2022-11-15T00:51:48.588Z,100617.00
2022-11-15T00:56:51.469Z,100614.20
2022-11-15T01:01:54.349Z,100609.20
2022-11-15T01:06:57.239Z,100606.40
2022-11-15T01:12:00.126Z,100588.40
2022-11-15T01:17:02.990Z,100585.20
2022-11-15T01:22:05.890Z,100583.80
2022-11-15T01:27:08.926Z,100573.80
2022-11-15T01:32:11.909Z,100569.00
2022-11-15T01:37:14.782Z,100571.60
2022-11-15T01:42:17.831Z,100565.60
2022-11-15T01:47:28.571Z,100554.20
2022-11-15T01:52:34.701Z,100548.60
2022-11-15T01:57:40.836Z,100544.40
2022-11-15T02:02:44.345Z,100529.60
2022-11-15T02:07:49.171Z,100528.00
2022-11-15T02:12:53.980Z,100522.40
2022-11-15T02:18:22.445Z,100522.20
2022-11-15T02:24:22.148Z,100512.60
2022-11-15T02:29:46.066Z,100505.40
2022-11-15T02:35:10.916Z,100507.00
2022-11-15T02:40:41.428Z,100500.80
2022-11-15T02:45:54.473Z,100489.20
2022-11-15T02:50:59.226Z,100490.00
2022-11-15T02:56:02.497Z,100483.20
2022-11-15T03:01:39.330Z,100477.80
2022-11-15T03:07:18.193Z,100477.00
2022-11-15T03:12:46.713Z,100467.00
2022-11-15T03:18:17.743Z,100454.60
2022-11-15T03:23:21.573Z,100445.80
2022-11-15T03:28:33.803Z,100443.00
2022-11-15T03:33:36.756Z,100439.20
2022-11-15T03:38:41.400Z,100436.40
2022-11-15T03:43:55.056Z,100436.20
2022-11-15T03:49:13.363Z,100425.80
2022-11-15T03:54:16.289Z,100417.00
2022-11-15T03:59:19.213Z,100420.80
2022-11-15T04:04:22.082Z,100417.00
2022-11-15T04:09:24.994Z,100414.20
2022-11-15T04:14:27.890Z,100405.40
2022-11-15T04:19:49.733Z,100401.40
2022-11-15T04:24:52.573Z,100395.00
2022-11-15T04:29:55.467Z,100396.60
2022-11-15T04:34:58.323Z,100394.00
2022-11-15T04:40:01.846Z,100393.60
2022-11-15T04:45:05.025Z,100388.40
2022-11-15T04:50:08.386Z,100382.80
2022-11-15T04:55:12.228Z,100387.80
2022-11-15T05:00:17.892Z,100390.00
2022-11-15T05:05:21.944Z,100388.80
2022-11-15T05:10:24.901Z,100384.00
2022-11-15T05:15:27.820Z,100388.80
2022-11-15T05:20:30.698Z,100391.40
2022-11-15T05:25:34.001Z,100386.00
2022-11-15T05:30:36.887Z,100373.60
2022-11-15T05:35:51.681Z,100370.20
2022-11-15T05:40:55.491Z,100371.60
2022-11-15T05:46:00.768Z,100373.80
2022-11-15T05:51:08.818Z,100376.00
2022-11-15T05:56:12.952Z,100376.40
2022-11-15T06:01:15.831Z,100376.80
2022-11-15T06:06:18.704Z,100375.60
2022-11-15T06:11:21.681Z,100381.60
2022-11-15T06:16:24.596Z,100384.00
2022-11-15T06:21:29.070Z,100381.00
2022-11-15T06:26:31.958Z,100381.20
2022-11-15T06:31:35.921Z,100373.80
2022-11-15T06:36:39.229Z,100369.60
2022-11-15T06:41:42.089Z,100366.60
2022-11-15T06:46:45.052Z,100371.20
2022-11-15T12:48:35.677Z,100226.00
2022-11-15T12:53:39.579Z,100221.60
2022-11-15T12:58:50.026Z,100224.60
2022-11-15T13:04:21.017Z,100226.00
2022-11-15T13:09:33.078Z,100223.60
2022-11-15T13:14:58.161Z,100217.60
2022-11-15T13:20:08.641Z,100214.20
2022-11-15T13:25:32.971Z,100212.40
2022-11-15T13:30:37.564Z,100214.20
2022-11-15T13:35:43.206Z,100203.80
2022-11-15T13:40:46.135Z,100205.20
2022-11-15T13:46:28.871Z,100198.60
2022-11-15T13:51:34.703Z,100208.40
2022-11-15T13:56:38.128Z,100199.00
2022-11-15T14:01:48.331Z,100195.20
2022-11-15T14:06:59.645Z,100191.00
2022-11-15T14:12:23.940Z,100197.60
2022-11-15T14:17:29.968Z,100189.80
2022-11-15T14:22:32.996Z,100192.80
2022-11-15T14:27:36.063Z,100184.00
2022-11-15T14:32:57.328Z,100179.20
2022-11-15T14:38:00.441Z,100180.40
2022-11-15T14:43:04.218Z,100179.40
2022-11-15T14:48:07.953Z,100170.80
2022-11-15T14:53:17.749Z,100168.40
2022-11-15T14:58:20.721Z,100167.20
2022-11-15T15:03:23.756Z,100157.20
2022-11-15T15:08:27.338Z,100158.00
2022-11-15T15:13:31.482Z,100150.60
2022-11-15T15:18:35.310Z,100154.80
2022-11-15T15:23:46.775Z,100155.60
2022-11-15T15:28:52.827Z,100148.00
2022-11-15T15:33:56.266Z,100150.80
2022-11-15T15:38:59.365Z,100150.20
2022-11-15T15:44:02.288Z,100144.40
2022-11-15T15:49:05.396Z,100146.20
2022-11-15T15:54:08.331Z,100146.80
2022-11-15T15:59:11.305Z,100140.80
2022-11-15T16:04:14.262Z,100137.40
2022-11-15T16:09:40.534Z,100138.60
2022-11-15T16:14:44.286Z,100133.00
2022-11-15T16:19:47.508Z,100144.20
2022-11-15T16:24:50.465Z,100146.20
2022-11-15T16:29:53.459Z,100144.60
2022-11-15T16:34:57.270Z,100147.40
2022-11-15T16:40:01.285Z,100144.00
2022-11-15T16:45:04.959Z,100145.20
2022-11-15T16:50:24.357Z,100143.60
2022-11-15T16:55:29.892Z,100143.80
2022-11-15T17:00:32.866Z,100140.80
2022-11-15T17:05:35.862Z,100140.20
2022-11-15T17:10:44.287Z,100137.40
2022-11-15T17:15:47.246Z,100135.40
2022-11-15T17:20:50.812Z,100137.80
2022-11-15T17:26:17.802Z,100128.00
2022-11-15T17:31:30.448Z,100128.40
2022-11-15T17:36:34.955Z,100121.20
2022-11-15T17:41:37.899Z,100136.80
2022-11-15T17:46:40.903Z,100134.00
2022-11-15T17:51:47.425Z,100139.80
2022-11-15T17:56:52.909Z,100145.20
2022-11-15T18:01:56.334Z,100149.40
2022-11-15T18:06:59.693Z,100140.40
2022-11-15T18:12:02.859Z,100142.40
2022-11-15T18:17:05.906Z,100136.40
2022-11-15T18:22:10.417Z,100133.80
2022-11-15T18:27:13.707Z,100134.40
2022-11-15T18:32:17.987Z,100134.00
2022-11-15T18:37:22.105Z,100144.20
2022-11-15T18:42:25.780Z,100147.40
2022-11-15T18:47:30.550Z,100147.80
2022-11-15T18:52:33.701Z,100142.20
2022-11-15T18:57:36.642Z,100142.20
2022-11-15T19:02:39.675Z,100142.60
2022-11-15T19:07:43.058Z,100141.40
2022-11-15T19:12:47.403Z,100140.80
2022-11-15T19:17:50.399Z,100136.40
2022-11-15T19:22:53.971Z,100131.60
2022-11-15T19:27:56.921Z,100124.60
2022-11-15T19:32:59.826Z,100120.20
2022-11-15T19:38:03.153Z,100123.80
2022-11-15T19:43:07.236Z,100126.80
2022-11-15T19:48:11.154Z,100127.40
2022-11-15T19:53:14.296Z,100126.80
2022-11-15T19:58:18.099Z,100117.60
2022-11-15T20:03:21.414Z,100114.80
2022-11-15T20:08:24.352Z,100114.60
2022-11-15T20:13:28.109Z,100109.20
2022-11-15T20:18:31.759Z,100102.20
2022-11-15T20:23:35.125Z,100103.20
2022-11-15T20:28:40.289Z,100100.40
2022-11-15T20:33:43.593Z,100103.20
2022-11-15T20:38:46.586Z,100112.20
2022-11-15T20:43:50.034Z,100117.40
2022-11-15T20:48:53.657Z,100116.00
2022-11-15T20:53:56.900Z,100112.40
2022-11-15T20:58:59.824Z,100107.20
2022-11-15T21:04:03.240Z,100105.00
2022-11-15T21:09:24.654Z,100089.00
2022-11-15T21:14:27.762Z,100085.40
2022-11-15T21:19:39.653Z,100088.40
2022-11-15T21:24:43.793Z,100094.40
2022-11-15T21:29:50.107Z,100090.40
2022-11-15T21:34:54.486Z,100091.60
2022-11-15T21:39:57.384Z,100081.40
2022-11-15T21:45:00.291Z,100073.40
2022-11-15T21:50:03.281Z,100063.00
2022-11-15T21:55:06.742Z,100071.20
2022-11-15T22:00:29.612Z,100068.00
2022-11-15T22:05:53.866Z,100063.60
2022-11-15T22:10:57.382Z,100057.00
2022-11-15T22:16:00.608Z,100049.00
2022-11-15T22:21:07.884Z,100050.20
2022-11-15T22:26:23.021Z,100057.60
2022-11-15T22:31:26.980Z,100059.20
2022-11-15T22:36:42.534Z,100061.60
2022-11-15T22:41:53.537Z,100065.40
2022-11-15T22:46:56.626Z,100065.20
2022-11-15T22:51:59.748Z,100059.40
2022-11-15T22:57:04.366Z,100051.20
2022-11-15T23:02:07.535Z,100057.80
2022-11-15T23:07:10.790Z,100055.80
2022-11-15T23:12:32.503Z,100038.60
2022-11-15T23:17:35.675Z,100038.60
2022-11-15T23:22:47.686Z,100034.20
2022-11-15T23:27:50.776Z,100029.60
2022-11-15T23:33:12.435Z,100031.00
2022-11-15T23:38:15.510Z,100036.00
2022-11-15T23:43:18.925Z,100029.00
2022-11-15T23:48:22.265Z,100031.20
2022-11-15T23:53:25.421Z,100014.60
2022-11-15T23:58:29.201Z,100011.60
